createdAt,value
2019-04-29T00:00:51.445Z,10.60
2019-04-29T00:01:51.381Z,10.64
2019-04-29T00:02:51.373Z,10.68
2019-04-29T00:03:51.368Z,10.72
2019-04-29T00:04:51.349Z,10.67
2019-04-29T00:05:51.336Z,10.75
2019-04-29T00:06:51.325Z,10.69
2019-04-29T00:07:51.313Z,10.67
2019-04-29T00:08:51.305Z,10.63
2019-04-29T00:09:51.309Z,10.59
2019-04-29T00:10:51.275Z,10.57
2019-04-29T00:11:51.272Z,10.51
2019-04-29T00:12:51.268Z,10.49
2019-04-29T00:13:51.243Z,10.60
2019-04-29T00:14:51.241Z,10.63
2019-04-29T00:15:51.257Z,10.61
2019-04-29T00:16:51.209Z,10.63
2019-04-29T00:17:51.199Z,10.67
2019-04-29T00:18:51.183Z,10.63
2019-04-29T00:19:51.183Z,10.59
2019-04-29T00:20:51.188Z,10.56
2019-04-29T00:21:51.153Z,10.54
2019-04-29T00:22:51.142Z,10.57
2019-04-29T00:24:03.256Z,10.63
2019-04-29T00:24:52.140Z,10.69
2019-04-29T00:25:51.116Z,10.61
2019-04-29T00:26:51.119Z,10.59
2019-04-29T00:27:51.091Z,10.60
2019-04-29T00:28:51.087Z,10.53
2019-04-29T00:29:51.061Z,10.51
2019-04-29T00:30:51.056Z,10.51
2019-04-29T00:31:51.053Z,10.48
2019-04-29T00:32:51.039Z,10.51
2019-04-29T00:33:51.043Z,10.51
2019-04-29T00:34:51.005Z,10.53
2019-04-29T00:35:50.993Z,10.53
2019-04-29T00:36:50.986Z,10.48
2019-04-29T00:37:50.987Z,10.56
2019-04-29T00:38:50.979Z,10.56
2019-04-29T00:39:50.952Z,10.57
2019-04-29T00:40:50.943Z,10.60
2019-04-29T00:41:50.933Z,10.63
2019-04-29T00:42:50.925Z,10.64
2019-04-29T00:43:50.926Z,10.74
2019-04-29T00:44:50.901Z,10.69
2019-04-29T00:45:50.884Z,10.68
2019-04-29T00:46:50.866Z,10.76
2019-04-29T00:47:50.867Z,10.71
2019-04-29T00:48:50.864Z,10.75
2019-04-29T00:49:50.850Z,10.74
2019-04-29T00:50:50.831Z,10.72
2019-04-29T00:51:50.818Z,10.76
2019-04-29T00:52:50.808Z,10.79
2019-04-29T00:53:50.799Z,10.84
2019-04-29T00:54:50.807Z,10.84
2019-04-29T00:55:50.786Z,10.84
2019-04-29T00:56:50.771Z,10.86
2019-04-29T00:57:50.749Z,10.68
2019-04-29T00:58:50.737Z,10.71
2019-04-29T00:59:50.741Z,10.76
2019-04-29T01:00:50.797Z,10.68
2019-04-29T01:01:50.710Z,10.72
2019-04-29T01:02:50.692Z,10.78
2019-04-29T01:03:50.680Z,10.71
2019-04-29T01:04:50.676Z,10.76
2019-04-29T01:05:50.681Z,10.71
2019-04-29T01:06:50.645Z,10.75
2019-04-29T01:07:50.638Z,10.76
2019-04-29T01:08:50.630Z,10.75
2019-04-29T01:09:50.620Z,10.74
2019-04-29T01:10:50.617Z,10.75
2019-04-29T01:11:50.618Z,10.75
2019-04-29T01:12:50.583Z,10.79
2019-04-29T01:13:50.564Z,10.76
2019-04-29T01:14:50.555Z,10.71
2019-04-29T01:15:50.605Z,10.64
2019-04-29T01:16:50.544Z,10.71
2019-04-29T01:17:50.550Z,10.81
2019-04-29T01:18:50.518Z,10.74
2019-04-29T01:19:50.502Z,10.74
2019-04-29T01:20:50.492Z,10.64
2019-04-29T01:21:50.481Z,10.64
2019-04-29T01:22:50.489Z,10.67
2019-04-29T01:23:50.454Z,10.63
2019-04-29T01:24:50.454Z,10.67
2019-04-29T01:25:50.436Z,10.53
2019-04-29T01:26:50.434Z,10.54
2019-04-29T01:27:50.418Z,10.37
2019-04-29T01:28:50.424Z,10.41
2019-04-29T01:29:50.396Z,10.37
2019-04-29T01:30:50.375Z,10.30
2019-04-29T01:31:50.370Z,10.37
2019-04-29T01:32:50.360Z,10.40
2019-04-29T01:33:50.360Z,10.35
2019-04-29T01:34:50.358Z,10.34
2019-04-29T01:35:50.326Z,10.34
2019-04-29T01:36:50.312Z,10.44
2019-04-29T01:37:50.301Z,10.31
2019-04-29T01:38:50.300Z,10.34
2019-04-29T01:39:50.292Z,10.28
2019-04-29T01:40:50.272Z,10.20
2019-04-29T01:41:50.267Z,10.31
2019-04-29T01:42:50.248Z,10.34
2019-04-29T01:43:50.232Z,10.35
2019-04-29T01:44:50.237Z,10.40
2019-04-29T01:45:50.226Z,10.34
2019-04-29T01:46:50.253Z,10.31
2019-04-29T01:47:50.221Z,10.31
2019-04-29T01:48:50.182Z,10.31
2019-04-29T01:49:50.171Z,10.26
2019-04-29T01:50:50.168Z,10.31
2019-04-29T01:51:50.144Z,10.40
2019-04-29T01:52:50.132Z,10.30
2019-04-29T01:53:50.119Z,10.31
2019-04-29T01:54:50.112Z,10.28
2019-04-29T01:55:50.107Z,10.30
2019-04-29T01:56:50.096Z,10.26
2019-04-29T01:57:50.098Z,10.25
2019-04-29T01:58:50.068Z,10.30
2019-04-29T01:59:50.052Z,10.20
2019-04-29T02:00:50.049Z,10.30
2019-04-29T02:01:50.048Z,10.16
2019-04-29T02:02:50.030Z,10.25
2019-04-29T02:03:50.007Z,10.23
2019-04-29T02:04:50.072Z,10.25
2019-04-29T02:05:50.004Z,10.31
2019-04-29T02:06:50.057Z,10.31
2019-04-29T02:07:49.973Z,10.25
2019-04-29T02:08:49.959Z,10.30
2019-04-29T02:09:49.950Z,10.19
2019-04-29T02:10:49.928Z,10.28
2019-04-29T02:11:49.943Z,10.31
2019-04-29T02:12:49.921Z,10.31
2019-04-29T02:13:49.894Z,10.19
2019-04-29T02:14:49.889Z,10.30
2019-04-29T02:15:49.878Z,10.20
2019-04-29T02:16:49.860Z,10.22
2019-04-29T02:17:49.854Z,10.25
2019-04-29T02:18:49.860Z,10.28
2019-04-29T02:19:49.849Z,10.31
2019-04-29T02:20:49.818Z,10.34
2019-04-29T02:21:49.808Z,10.28
2019-04-29T02:22:49.806Z,10.30
2019-04-29T02:23:49.795Z,10.20
2019-04-29T02:24:49.782Z,10.12
2019-04-29T02:25:49.764Z,10.16
2019-04-29T02:26:49.756Z,10.15
2019-04-29T02:27:49.746Z,10.07
2019-04-29T02:28:49.732Z,10.01
2019-04-29T02:29:49.738Z,10.04
2019-04-29T02:30:49.708Z,10.16
2019-04-29T02:31:49.693Z,9.99
2019-04-29T02:32:49.681Z,10.10
2019-04-29T02:33:49.686Z,10.10
2019-04-29T02:34:49.662Z,10.22
2019-04-29T02:35:49.671Z,10.22
2019-04-29T02:36:49.658Z,10.20
2019-04-29T02:37:49.650Z,10.28
2019-04-29T02:38:49.623Z,10.19
2019-04-29T02:39:49.620Z,10.20
2019-04-29T02:40:49.605Z,10.19
2019-04-29T02:41:49.594Z,10.19
2019-04-29T02:42:49.596Z,10.05
2019-04-29T02:43:49.568Z,10.15
2019-04-29T02:44:49.561Z,10.10
2019-04-29T02:45:49.544Z,10.22
2019-04-29T02:46:49.539Z,10.12
2019-04-29T02:47:49.592Z,10.13
2019-04-29T02:48:49.511Z,10.12
2019-04-29T02:49:49.511Z,10.01
2019-04-29T02:50:49.485Z,9.95
2019-04-29T02:51:49.478Z,9.91
2019-04-29T02:52:49.485Z,9.94
2019-04-29T02:53:49.498Z,9.95
2019-04-29T02:54:49.431Z,9.99
2019-04-29T02:55:49.416Z,9.97
2019-04-29T02:56:49.422Z,10.01
2019-04-29T02:57:49.404Z,10.04
2019-04-29T02:58:49.409Z,9.92
2019-04-29T02:59:49.383Z,10.01
2019-04-29T03:00:49.366Z,10.01
2019-04-29T03:01:49.357Z,9.92
2019-04-29T03:02:49.356Z,10.02
2019-04-29T03:03:49.342Z,10.05
2019-04-29T03:04:49.329Z,9.98
2019-04-29T03:05:49.312Z,9.99
2019-04-29T03:06:49.306Z,9.98
2019-04-29T03:07:49.304Z,10.01
2019-04-29T03:08:49.279Z,10.07
2019-04-29T03:09:49.311Z,10.10
2019-04-29T03:10:49.261Z,10.16
2019-04-29T03:11:49.250Z,10.17
2019-04-29T03:12:49.242Z,10.15
2019-04-29T03:13:49.248Z,9.89
2019-04-29T03:14:49.216Z,9.99
2019-04-29T03:15:49.241Z,9.97
2019-04-29T03:16:49.195Z,9.94
2019-04-29T03:17:49.182Z,10.12
2019-04-29T03:18:49.176Z,10.02
2019-04-29T03:19:49.163Z,9.97
2019-04-29T03:20:49.175Z,10.04
2019-04-29T03:21:49.132Z,9.99
2019-04-29T03:22:49.124Z,9.95
2019-04-29T03:23:49.118Z,9.92
2019-04-29T03:24:49.099Z,10.05
2019-04-29T03:25:49.110Z,10.01
2019-04-29T03:26:49.083Z,9.98
2019-04-29T03:27:49.074Z,10.12
2019-04-29T03:28:49.054Z,9.98
2019-04-29T03:29:49.082Z,9.97
2019-04-29T03:30:49.047Z,9.92
2019-04-29T03:31:49.048Z,9.86
2019-04-29T03:32:49.010Z,9.95
2019-04-29T03:33:49.016Z,9.94
2019-04-29T03:34:48.978Z,9.92
2019-04-29T03:35:49.048Z,9.89
2019-04-29T03:36:48.978Z,9.92
2019-04-29T03:37:48.966Z,9.91
2019-04-29T03:38:48.942Z,9.87
2019-04-29T03:39:48.930Z,9.92
2019-04-29T03:40:48.929Z,10.12
2019-04-29T03:41:48.914Z,9.94
2019-04-29T03:42:48.903Z,9.94
2019-04-29T03:43:48.888Z,9.98
2019-04-29T03:44:48.870Z,9.94
2019-04-29T03:45:48.857Z,10.01
2019-04-29T03:46:48.856Z,9.89
2019-04-29T03:47:48.836Z,9.91
2019-04-29T03:48:48.841Z,9.89
2019-04-29T03:49:48.814Z,9.92
2019-04-29T03:50:48.804Z,9.87
2019-04-29T03:51:48.792Z,9.84
2019-04-29T03:52:48.786Z,9.86
2019-04-29T03:53:48.778Z,9.80
2019-04-29T03:54:48.755Z,9.82
2019-04-29T03:55:48.750Z,9.80
2019-04-29T03:56:48.731Z,9.84
2019-04-29T03:57:48.740Z,9.92
2019-04-29T03:58:48.713Z,9.91
2019-04-29T03:59:48.727Z,9.91
2019-04-29T04:00:48.723Z,9.91
2019-04-29T04:01:48.678Z,9.89
2019-04-29T04:02:48.684Z,10.05
2019-04-29T04:03:48.658Z,9.95
2019-04-29T04:04:48.666Z,9.97
2019-04-29T04:05:48.634Z,10.07
2019-04-29T04:06:48.629Z,10.05
2019-04-29T04:07:48.609Z,10.05
2019-04-29T04:09:04.762Z,10.04
2019-04-29T04:09:49.735Z,10.13
2019-04-29T04:10:48.582Z,10.10
2019-04-29T04:11:48.586Z,10.09
2019-04-29T04:12:48.561Z,9.98
2019-04-29T04:13:48.541Z,10.09
2019-04-29T04:14:48.549Z,9.91
2019-04-29T04:15:48.540Z,9.98
2019-04-29T04:16:48.531Z,10.02
2019-04-29T04:17:48.509Z,10.04
2019-04-29T04:18:48.488Z,10.02
2019-04-29T04:19:48.489Z,9.99
2019-04-29T04:20:48.470Z,9.95
2019-04-29T04:21:48.457Z,9.99
2019-04-29T04:22:48.617Z,9.97
2019-04-29T04:23:48.443Z,9.98
2019-04-29T04:24:48.423Z,9.98
2019-04-29T04:25:48.423Z,9.91
2019-04-29T04:26:48.463Z,9.98
2019-04-29T04:27:48.405Z,10.04
2019-04-29T04:28:48.386Z,10.02
2019-04-29T04:29:48.389Z,10.05
2019-04-29T04:30:48.351Z,10.02
2019-04-29T04:31:48.347Z,10.12
2019-04-29T04:32:48.379Z,9.95
2019-04-29T04:33:48.329Z,10.10
2019-04-29T04:34:48.305Z,10.04
2019-04-29T04:35:48.299Z,9.91
2019-04-29T04:36:48.292Z,9.94
2019-04-29T04:37:48.273Z,9.98
2019-04-29T04:38:48.326Z,10.01
2019-04-29T04:39:48.271Z,10.02
2019-04-29T04:40:48.258Z,10.05
2019-04-29T04:41:48.226Z,10.15
2019-04-29T04:42:48.230Z,10.10
2019-04-29T04:43:48.236Z,10.13
2019-04-29T04:44:48.205Z,10.05
2019-04-29T04:45:48.203Z,10.07
2019-04-29T04:46:48.175Z,10.04
2019-04-29T04:47:48.166Z,10.10
2019-04-29T04:48:48.154Z,9.98
2019-04-29T04:49:48.148Z,10.10
2019-04-29T04:50:48.142Z,9.95
2019-04-29T04:51:48.125Z,10.05
2019-04-29T04:52:48.100Z,9.94
2019-04-29T04:53:48.101Z,9.91
2019-04-29T04:54:48.078Z,9.91
2019-04-29T04:55:48.083Z,9.86
2019-04-29T04:56:48.066Z,9.80
2019-04-29T04:57:48.056Z,9.84
2019-04-29T04:58:48.036Z,9.83
2019-04-29T04:59:48.029Z,9.92
2019-04-29T05:00:48.018Z,9.91
2019-04-29T05:01:48.021Z,10.04
2019-04-29T05:02:48.001Z,9.84
2019-04-29T05:03:47.984Z,9.94
2019-04-29T05:04:47.969Z,9.95
2019-04-29T05:05:47.976Z,10.13
2019-04-29T05:06:47.966Z,10.12
2019-04-29T05:07:47.958Z,10.17
2019-04-29T05:08:48.017Z,10.31
2019-04-29T05:09:47.947Z,10.20
2019-04-29T05:10:47.950Z,10.23
2019-04-29T05:11:47.895Z,10.15
2019-04-29T05:12:47.895Z,10.22
2019-04-29T05:13:47.872Z,10.25
2019-04-29T05:14:47.854Z,10.22
2019-04-29T05:15:47.846Z,10.23
2019-04-29T05:16:47.843Z,10.26
2019-04-29T05:17:47.827Z,10.17
2019-04-29T05:18:47.834Z,10.23
2019-04-29T05:19:47.810Z,10.30
2019-04-29T05:20:47.798Z,10.34
2019-04-29T05:21:47.792Z,10.30
2019-04-29T05:22:47.768Z,10.31
2019-04-29T05:23:47.772Z,10.26
2019-04-29T05:24:47.765Z,10.34
2019-04-29T05:25:47.726Z,10.35
2019-04-29T05:26:47.725Z,10.34
2019-04-29T05:27:47.714Z,10.31
2019-04-29T05:28:47.709Z,10.31
2019-04-29T05:29:47.698Z,10.23
2019-04-29T05:30:47.683Z,10.17
2019-04-29T05:31:47.663Z,10.20
2019-04-29T05:32:47.666Z,10.30
2019-04-29T05:33:47.636Z,10.17
2019-04-29T05:34:48.272Z,10.20
2019-04-29T05:35:47.622Z,10.23
2019-04-29T05:36:47.625Z,10.26
2019-04-29T05:37:47.597Z,10.28
2019-04-29T05:38:47.595Z,10.22
2019-04-29T05:39:47.576Z,10.26
2019-04-29T05:40:47.580Z,10.20
2019-04-29T05:41:47.555Z,10.20
2019-04-29T05:42:48.283Z,10.19
2019-04-29T05:43:47.535Z,10.19
2019-04-29T05:44:47.530Z,10.15
2019-04-29T05:45:47.886Z,10.12
2019-04-29T05:46:47.508Z,10.10
2019-04-29T05:47:47.486Z,10.15
2019-04-29T05:48:47.476Z,10.09
2019-04-29T05:49:47.508Z,10.20
2019-04-29T05:50:51.793Z,10.15
2019-04-29T05:51:47.447Z,10.09
2019-04-29T05:52:49.787Z,10.01
2019-04-29T05:53:54.505Z,10.02
2019-04-29T05:54:48.403Z,10.12
2019-04-29T05:55:47.408Z,10.12
2019-04-29T05:56:47.386Z,10.13
2019-04-29T05:57:47.385Z,10.09
2019-04-29T05:58:47.362Z,10.15
2019-04-29T05:59:47.748Z,10.19
2019-04-29T06:00:47.346Z,10.07
2019-04-29T06:01:48.910Z,10.05
2019-04-29T06:02:47.324Z,10.10
2019-04-29T06:03:47.306Z,10.01
2019-04-29T06:04:48.084Z,10.05
2019-04-29T06:05:47.284Z,10.02
2019-04-29T06:06:47.272Z,9.98
2019-04-29T06:07:47.264Z,9.95
2019-04-29T06:08:47.262Z,9.97
2019-04-29T06:09:47.246Z,9.95
2019-04-29T06:10:47.230Z,9.86
2019-04-29T06:11:47.221Z,10.01
2019-04-29T06:12:47.199Z,9.98
2019-04-29T06:13:47.194Z,9.94
2019-04-29T06:14:47.186Z,9.97
2019-04-29T06:15:47.170Z,9.94
2019-04-29T06:16:47.220Z,10.01
2019-04-29T06:17:47.162Z,9.99
2019-04-29T06:18:47.210Z,10.01
2019-04-29T06:19:47.134Z,9.92
2019-04-29T06:20:47.112Z,9.86
2019-04-29T06:21:54.296Z,9.95
2019-04-29T06:23:28.760Z,10.02
2019-04-29T06:24:28.754Z,9.94
2019-04-29T06:25:28.728Z,9.99
2019-04-29T06:26:28.719Z,9.97
2019-04-29T06:27:28.704Z,9.94
2019-04-29T06:28:28.692Z,9.91
2019-04-29T06:29:28.683Z,9.95
2019-04-29T06:30:28.679Z,9.99
2019-04-29T06:31:28.660Z,10.13
2019-04-29T06:32:28.648Z,9.99
2019-04-29T06:33:30.792Z,10.07
2019-04-29T06:34:28.643Z,10.07
2019-04-29T06:35:28.608Z,10.13
2019-04-29T06:36:28.602Z,10.12
2019-04-29T06:37:28.588Z,10.19
2019-04-29T06:38:28.577Z,10.23
2019-04-29T06:39:28.582Z,10.28
2019-04-29T06:40:30.627Z,10.23
2019-04-29T06:41:29.541Z,10.20
2019-04-29T06:42:28.533Z,10.22
2019-04-29T06:43:30.359Z,10.35
2019-04-29T06:44:28.519Z,10.28
2019-04-29T06:45:28.507Z,10.30
2019-04-29T06:46:28.490Z,10.30
2019-04-29T06:47:28.478Z,10.33
2019-04-29T06:48:28.468Z,10.33
2019-04-29T06:49:28.458Z,10.31
2019-04-29T06:50:28.443Z,10.33
2019-04-29T06:51:28.438Z,10.35
2019-04-29T06:52:28.419Z,10.30
2019-04-29T06:53:28.423Z,10.19
2019-04-29T06:54:28.401Z,10.20
2019-04-29T06:55:28.392Z,10.34
2019-04-29T06:56:28.377Z,10.17
2019-04-29T06:57:28.378Z,10.33
2019-04-29T06:58:28.351Z,10.35
2019-04-29T06:59:28.352Z,10.33
2019-04-29T07:00:28.329Z,10.30
2019-04-29T07:01:28.322Z,10.30
2019-04-29T07:02:28.323Z,10.30
2019-04-29T07:03:28.317Z,10.17
2019-04-29T07:04:30.618Z,10.20
2019-04-29T07:05:29.282Z,10.09
2019-04-29T07:06:28.260Z,10.15
2019-04-29T07:07:28.263Z,10.19
2019-04-29T07:08:28.247Z,10.10
2019-04-29T07:09:28.243Z,10.19
2019-04-29T07:10:28.222Z,10.19
2019-04-29T07:11:31.873Z,10.25
2019-04-29T07:12:29.209Z,10.35
2019-04-29T07:13:28.230Z,10.35
2019-04-29T07:14:32.456Z,10.26
2019-04-29T07:15:28.161Z,10.31
2019-04-29T07:16:31.883Z,10.33
2019-04-29T07:17:28.162Z,10.38
2019-04-29T07:18:28.136Z,10.38
2019-04-29T07:19:28.360Z,10.34
2019-04-29T07:20:28.118Z,10.34
2019-04-29T07:21:28.095Z,10.35
2019-04-29T07:22:31.039Z,10.35
2019-04-29T07:23:28.073Z,10.33
2019-04-29T07:24:28.063Z,10.28
2019-04-29T07:25:28.750Z,10.34
2019-04-29T07:26:28.044Z,10.31
2019-04-29T07:27:28.032Z,10.40
2019-04-29T07:28:28.022Z,10.35
2019-04-29T07:29:30.787Z,10.40
2019-04-29T07:30:29.361Z,10.42
2019-04-29T07:31:32.737Z,10.54
2019-04-29T07:32:32.067Z,10.54
2019-04-29T07:33:27.961Z,10.48
2019-04-29T07:34:28.996Z,10.49
2019-04-29T07:35:28.942Z,10.53
2019-04-29T07:36:27.940Z,10.46
2019-04-29T07:37:29.749Z,10.46
2019-04-29T07:38:40.767Z,10.46
2019-04-29T07:39:31.776Z,10.44
2019-04-29T07:40:27.896Z,10.41
2019-04-29T07:41:27.893Z,10.41
2019-04-29T07:42:32.319Z,10.34
2019-04-29T07:43:28.859Z,10.40
2019-04-29T07:44:42.692Z,10.37
2019-04-29T07:45:29.229Z,10.34
2019-04-29T07:46:27.872Z,10.37
2019-04-29T07:47:29.490Z,10.40
2019-04-29T07:48:36.844Z,10.41
2019-04-29T07:50:10.576Z,10.57
2019-04-29T07:51:17.589Z,10.48
2019-04-29T07:52:59.275Z,10.44
2019-04-29T07:53:59.236Z,10.42
2019-04-29T07:55:33.755Z,10.41
2019-04-29T07:56:42.341Z,10.34
2019-04-29T07:58:16.414Z,10.49
2019-04-29T07:59:16.374Z,10.44
2019-04-29T08:00:16.361Z,10.46
2019-04-29T08:01:19.725Z,10.49
2019-04-29T08:02:17.350Z,10.51
2019-04-29T08:03:16.335Z,10.49
2019-04-29T08:04:16.325Z,10.51
2019-04-29T08:05:16.314Z,10.56
2019-04-29T08:06:16.315Z,10.56
2019-04-29T08:07:16.295Z,10.51
2019-04-29T08:08:23.453Z,10.51
2019-04-29T08:09:58.049Z,10.40
2019-04-29T08:10:57.921Z,10.54
2019-04-29T08:12:39.581Z,10.42
2019-04-29T08:13:39.579Z,10.38
2019-04-29T08:15:21.231Z,10.40
2019-04-29T08:16:21.208Z,10.37
2019-04-29T08:18:06.591Z,10.35
2019-04-29T08:19:05.005Z,10.40
2019-04-29T08:20:05.372Z,10.41
2019-04-29T08:21:02.838Z,10.48
2019-04-29T08:22:02.831Z,10.49
2019-04-29T08:23:04.118Z,10.49
2019-04-29T08:24:02.816Z,10.53
2019-04-29T08:25:02.794Z,10.48
2019-04-29T08:26:04.478Z,10.51
2019-04-29T08:27:02.793Z,10.57
2019-04-29T08:28:02.771Z,10.56
2019-04-29T08:29:02.762Z,10.53
2019-04-29T08:30:06.742Z,10.51
2019-04-29T08:31:03.730Z,10.46
2019-04-29T08:32:02.770Z,10.41
2019-04-29T08:33:02.714Z,10.41
2019-04-29T08:34:02.694Z,10.41
2019-04-29T08:35:03.368Z,10.33
2019-04-29T08:36:02.677Z,10.26
2019-04-29T08:37:02.671Z,10.31
2019-04-29T08:38:02.655Z,10.33
2019-04-29T08:39:08.774Z,10.49
2019-04-29T08:40:15.550Z,10.40
2019-04-29T08:41:03.695Z,10.40
2019-04-29T08:42:03.862Z,10.40
2019-04-29T08:43:02.625Z,10.49
2019-04-29T08:44:15.898Z,10.51
2019-04-29T08:45:03.648Z,10.56
2019-04-29T08:46:02.711Z,10.57
2019-04-29T08:47:02.571Z,10.59
2019-04-29T08:48:02.563Z,10.56
2019-04-29T08:49:06.120Z,10.60
2019-04-29T08:50:03.531Z,10.59
2019-04-29T08:51:02.539Z,10.68
2019-04-29T08:52:02.506Z,10.68
2019-04-29T08:53:02.498Z,10.68
2019-04-29T08:54:02.523Z,10.64
2019-04-29T08:55:02.474Z,10.56
2019-04-29T08:56:05.538Z,10.53
2019-04-29T08:57:04.407Z,10.44
2019-04-29T08:58:02.459Z,10.37
2019-04-29T08:59:02.441Z,10.40
2019-04-29T09:00:02.431Z,10.35
2019-04-29T09:01:02.413Z,10.38
2019-04-29T09:02:05.308Z,10.46
2019-04-29T09:03:03.442Z,10.48
2019-04-29T09:04:02.370Z,10.49
2019-04-29T09:05:02.365Z,10.61
2019-04-29T09:06:05.489Z,10.61
2019-04-29T09:07:12.450Z,10.64
2019-04-29T09:08:03.332Z,10.75
2019-04-29T09:09:04.967Z,10.72
2019-04-29T09:10:03.695Z,10.72
2019-04-29T09:11:02.302Z,10.81
2019-04-29T09:12:02.285Z,10.76
2019-04-29T09:13:02.279Z,10.89
2019-04-29T09:14:02.255Z,10.79
2019-04-29T09:15:02.258Z,10.84
2019-04-29T09:16:02.245Z,10.79
2019-04-29T09:17:04.810Z,10.92
2019-04-29T09:18:03.233Z,10.86
2019-04-29T09:19:02.222Z,10.81
2019-04-29T09:20:02.199Z,10.74
2019-04-29T09:21:02.189Z,10.74
2019-04-29T09:22:02.189Z,10.67
2019-04-29T09:23:02.172Z,10.69
2019-04-29T09:24:02.160Z,10.75
2019-04-29T09:25:02.153Z,10.68
2019-04-29T09:26:03.218Z,10.81
2019-04-29T09:27:05.047Z,10.75
2019-04-29T09:28:03.129Z,10.89
2019-04-29T09:29:03.957Z,10.90
2019-04-29T09:30:02.158Z,10.86
2019-04-29T09:31:02.096Z,10.69
2019-04-29T09:32:02.072Z,10.64
2019-04-29T09:33:02.072Z,10.56
2019-04-29T09:34:06.761Z,10.59
2019-04-29T09:35:03.041Z,10.46
2019-04-29T09:36:02.032Z,10.53
2019-04-29T09:37:02.010Z,10.59
2019-04-29T09:38:02.008Z,10.68
2019-04-29T09:39:01.994Z,10.74
2019-04-29T09:40:01.996Z,10.69
2019-04-29T09:41:01.974Z,10.79
2019-04-29T09:42:03.486Z,10.87
2019-04-29T09:43:14.560Z,10.82
2019-04-29T09:44:04.044Z,10.94
2019-04-29T09:45:01.932Z,10.99
2019-04-29T09:46:01.975Z,11.05
2019-04-29T09:47:04.190Z,11.00
2019-04-29T09:48:02.899Z,11.05
2019-04-29T09:49:01.888Z,11.02
2019-04-29T09:50:01.873Z,10.89
2019-04-29T09:51:01.892Z,10.96
2019-04-29T09:52:01.850Z,10.96
2019-04-29T09:53:01.866Z,10.93
2019-04-29T09:54:01.837Z,10.94
2019-04-29T09:55:03.961Z,10.94
2019-04-29T09:56:01.810Z,10.92
2019-04-29T09:57:01.808Z,10.90
2019-04-29T09:58:01.840Z,10.87
2019-04-29T09:59:01.783Z,10.82
2019-04-29T10:00:05.358Z,10.71
2019-04-29T10:01:02.755Z,10.71
2019-04-29T10:02:01.765Z,10.68
2019-04-29T10:03:02.947Z,10.72
2019-04-29T10:04:01.724Z,10.74
2019-04-29T10:05:01.730Z,10.72
2019-04-29T10:06:01.731Z,10.81
2019-04-29T10:07:01.685Z,10.87
2019-04-29T10:08:01.684Z,10.82
2019-04-29T10:09:01.662Z,10.87
2019-04-29T10:10:02.402Z,10.82
2019-04-29T10:11:02.651Z,10.87
2019-04-29T10:12:01.641Z,10.86
2019-04-29T10:13:01.632Z,10.93
2019-04-29T10:14:01.635Z,10.92
2019-04-29T10:15:01.605Z,10.93
2019-04-29T10:16:02.142Z,11.05
2019-04-29T10:17:01.577Z,11.00
2019-04-29T10:18:01.589Z,11.00
2019-04-29T10:19:05.319Z,11.00
2019-04-29T10:20:01.551Z,11.04
2019-04-29T10:21:01.533Z,11.07
2019-04-29T10:22:01.528Z,10.96
2019-04-29T10:23:01.526Z,11.05
2019-04-29T10:24:01.514Z,11.05
2019-04-29T10:25:01.502Z,11.10
2019-04-29T10:26:01.640Z,11.15
2019-04-29T10:27:01.472Z,11.14
2019-04-29T10:28:01.469Z,11.10
2019-04-29T10:29:01.460Z,11.17
2019-04-29T10:30:01.446Z,11.18
2019-04-29T10:31:01.429Z,11.17
2019-04-29T10:32:02.481Z,11.19
2019-04-29T10:33:02.419Z,11.22
2019-04-29T10:34:01.407Z,11.18
2019-04-29T10:35:03.636Z,11.19
2019-04-29T10:36:02.382Z,11.19
2019-04-29T10:37:01.384Z,11.17
2019-04-29T10:38:02.816Z,11.18
2019-04-29T10:39:01.350Z,11.17
2019-04-29T10:40:10.984Z,11.27
2019-04-29T10:41:02.419Z,11.32
2019-04-29T10:42:01.319Z,11.27
2019-04-29T10:43:01.292Z,11.25
2019-04-29T10:44:01.293Z,11.30
2019-04-29T10:45:01.356Z,11.30
2019-04-29T10:46:01.264Z,11.37
2019-04-29T10:47:01.258Z,11.32
2019-04-29T10:48:01.244Z,11.36
2019-04-29T10:49:03.561Z,11.35
2019-04-29T10:50:01.250Z,11.26
2019-04-29T10:51:01.232Z,11.30
2019-04-29T10:52:02.824Z,11.36
2019-04-29T10:53:01.199Z,11.43
2019-04-29T10:54:01.191Z,11.45
2019-04-29T10:55:01.203Z,11.45
2019-04-29T10:56:05.540Z,11.48
2019-04-29T10:57:02.142Z,11.44
2019-04-29T10:58:01.138Z,11.51
2019-04-29T10:59:04.501Z,11.52
2019-04-29T11:00:02.243Z,11.59
2019-04-29T11:01:01.206Z,11.63
2019-04-29T11:02:05.101Z,11.48
2019-04-29T11:03:02.089Z,11.45
2019-04-29T11:04:02.771Z,11.43
2019-04-29T11:05:02.675Z,11.43
2019-04-29T11:06:02.119Z,11.37
2019-04-29T11:07:13.541Z,11.37
2019-04-29T11:08:02.488Z,11.40
2019-04-29T11:09:01.013Z,11.44
2019-04-29T11:10:01.004Z,11.43
2019-04-29T11:11:02.656Z,11.44
2019-04-29T11:12:00.994Z,11.41
2019-04-29T11:13:00.978Z,11.40
2019-04-29T11:14:01.656Z,11.50
2019-04-29T11:15:01.765Z,11.48
2019-04-29T11:16:00.934Z,11.45
2019-04-29T11:17:00.930Z,11.51
2019-04-29T11:18:03.554Z,11.50
2019-04-29T11:19:05.089Z,11.47
2019-04-29T11:20:00.916Z,11.51
2019-04-29T11:21:00.878Z,11.51
2019-04-29T11:22:02.183Z,11.45
2019-04-29T11:23:00.857Z,11.47
2019-04-29T11:24:00.861Z,11.52
2019-04-29T11:25:00.858Z,11.52
2019-04-29T11:26:00.830Z,11.65
2019-04-29T11:27:11.618Z,11.65
2019-04-29T11:28:01.824Z,11.77
2019-04-29T11:29:00.799Z,11.72
2019-04-29T11:30:02.999Z,11.72
2019-04-29T11:31:00.769Z,11.78
2019-04-29T11:32:00.766Z,11.87
2019-04-29T11:33:04.707Z,11.87
2019-04-29T11:34:01.740Z,11.94
2019-04-29T11:35:00.728Z,11.91
2019-04-29T11:36:03.936Z,11.94
2019-04-29T11:37:01.713Z,11.94
2019-04-29T11:38:00.694Z,11.86
2019-04-29T11:39:00.686Z,11.90
2019-04-29T11:40:00.675Z,11.94
2019-04-29T11:41:00.666Z,11.88
2019-04-29T11:42:01.595Z,11.94
2019-04-29T11:43:00.637Z,11.88
2019-04-29T11:44:00.635Z,11.87
2019-04-29T11:45:02.150Z,11.83
2019-04-29T11:46:00.602Z,11.88
2019-04-29T11:47:00.595Z,11.88
2019-04-29T11:48:00.589Z,11.87
2019-04-29T11:49:00.574Z,11.87
2019-04-29T11:50:00.562Z,11.94
2019-04-29T11:51:00.641Z,11.99
2019-04-29T11:52:10.045Z,11.94
2019-04-29T11:53:01.526Z,12.02
2019-04-29T11:54:00.515Z,12.00
2019-04-29T11:55:00.507Z,12.07
2019-04-29T11:56:00.505Z,12.09
2019-04-29T11:57:00.517Z,12.06
2019-04-29T11:58:00.521Z,12.09
2019-04-29T11:59:00.545Z,12.15
2019-04-29T12:00:00.450Z,12.15
2019-04-29T12:01:03.932Z,12.21
2019-04-29T12:02:01.476Z,12.27
2019-04-29T12:03:00.415Z,12.42
2019-04-29T12:04:00.407Z,12.43
2019-04-29T12:05:04.088Z,12.53
2019-04-29T12:06:01.423Z,12.57
2019-04-29T12:07:00.385Z,12.62
2019-04-29T12:08:03.853Z,12.65
2019-04-29T12:09:01.366Z,12.65
2019-04-29T12:10:02.273Z,12.76
2019-04-29T12:11:07.131Z,12.76
2019-04-29T12:12:01.318Z,12.80
2019-04-29T12:13:00.315Z,12.80
2019-04-29T12:14:02.996Z,12.86
2019-04-29T12:15:00.325Z,12.97
2019-04-29T12:16:00.294Z,13.05
2019-04-29T12:17:00.265Z,13.03
2019-04-29T12:18:00.249Z,13.11
2019-04-29T12:19:00.250Z,12.91
2019-04-29T12:20:00.239Z,13.04
2019-04-29T12:21:00.216Z,13.08
2019-04-29T12:22:00.351Z,13.08
2019-04-29T12:23:00.195Z,13.03
2019-04-29T12:24:00.196Z,13.08
2019-04-29T12:25:00.172Z,13.04
2019-04-29T12:26:03.220Z,13.13
2019-04-29T12:27:00.148Z,13.15
2019-04-29T12:28:02.003Z,13.22
2019-04-29T12:29:00.138Z,13.16
2019-04-29T12:30:00.148Z,13.18
2019-04-29T12:31:00.098Z,13.16
2019-04-29T12:32:00.103Z,13.22
2019-04-29T12:33:01.405Z,13.25
2019-04-29T12:34:00.073Z,13.28
2019-04-29T12:35:00.059Z,13.33
2019-04-29T12:36:03.281Z,13.28
2019-04-29T12:37:01.052Z,13.35
2019-04-29T12:38:00.698Z,13.37
2019-04-29T12:39:01.101Z,13.28
2019-04-29T12:40:00.008Z,13.44
2019-04-29T12:41:00.004Z,13.39
2019-04-29T12:42:00.612Z,13.47
2019-04-29T12:42:59.973Z,13.52
2019-04-29T12:44:00.035Z,13.56
2019-04-29T12:44:59.950Z,13.63
2019-04-29T12:45:59.937Z,13.56
2019-04-29T12:46:59.963Z,13.59
2019-04-29T12:47:59.993Z,13.60
2019-04-29T12:49:03.502Z,13.68
2019-04-29T12:50:00.905Z,13.74
2019-04-29T12:50:59.887Z,13.72
2019-04-29T12:51:59.899Z,13.74
2019-04-29T12:52:59.871Z,13.75
2019-04-29T12:53:59.855Z,13.78
2019-04-29T12:55:07.078Z,13.81
2019-04-29T12:56:00.825Z,13.90
2019-04-29T12:56:59.822Z,13.93
2019-04-29T12:57:59.819Z,13.99
2019-04-29T12:59:01.702Z,14.08
2019-04-29T12:59:59.813Z,14.10
2019-04-29T13:01:02.768Z,14.22
2019-04-29T13:02:01.057Z,14.26
2019-04-29T13:03:01.741Z,14.35